createdAt,value
2018-12-23T00:01:26.412Z,0.53
2018-12-23T00:03:53.904Z,1.73
2018-12-23T00:06:21.449Z,1.00
2018-12-23T00:08:48.999Z,0.60
2018-12-23T00:11:16.486Z,0.70
2018-12-23T00:13:43.970Z,0.90
2018-12-23T00:16:11.471Z,0.80
2018-12-23T00:18:38.955Z,1.10
2018-12-23T00:21:06.445Z,0.90
2018-12-23T00:23:33.954Z,1.20
2018-12-23T00:26:01.466Z,0.90
2018-12-23T00:31:02.890Z,1.00
2018-12-23T00:33:30.376Z,1.77
2018-12-23T00:35:57.864Z,0.90
2018-12-23T00:38:25.372Z,0.87
2018-12-23T00:40:52.862Z,0.90
2018-12-23T00:43:20.354Z,0.97
2018-12-23T00:45:47.852Z,0.70
2018-12-23T00:48:15.334Z,0.60
2018-12-23T00:50:42.814Z,0.73
2018-12-23T00:53:10.314Z,0.73
2018-12-23T00:55:37.833Z,0.70
2018-12-23T00:58:05.310Z,0.60
2018-12-23T01:00:32.810Z,0.80
2018-12-23T01:03:00.290Z,0.77
2018-12-23T01:05:28.920Z,0.87
2018-12-23T01:07:56.878Z,0.60
2018-12-23T01:10:24.373Z,0.60
2018-12-23T01:12:51.864Z,1.07
2018-12-23T01:15:19.366Z,0.90
2018-12-23T01:17:46.857Z,0.63
2018-12-23T01:20:14.342Z,0.70
2018-12-23T01:22:41.859Z,0.53
2018-12-23T01:25:09.422Z,0.60
2018-12-23T01:27:36.958Z,0.80
2018-12-23T01:30:05.310Z,1.20
2018-12-23T01:32:32.977Z,0.77
2018-12-23T01:35:00.454Z,1.37
2018-12-23T01:37:27.948Z,0.70
2018-12-23T01:39:55.433Z,1.17
2018-12-23T01:42:22.925Z,1.00
2018-12-23T01:44:51.483Z,1.33
2018-12-23T01:47:18.966Z,1.73
2018-12-23T01:49:46.449Z,0.80
2018-12-23T01:52:13.964Z,1.13
2018-12-23T01:54:41.445Z,0.80
2018-12-23T01:57:08.944Z,0.80
2018-12-23T01:59:36.442Z,0.80
2018-12-23T02:02:04.017Z,1.27
2018-12-23T02:04:31.501Z,0.97
2018-12-23T02:06:59.010Z,1.20
2018-12-23T02:09:26.502Z,0.97
2018-12-23T02:11:53.986Z,1.17
2018-12-23T02:14:21.494Z,0.90
2018-12-23T02:16:48.974Z,1.03
2018-12-23T02:19:16.467Z,0.80
2018-12-23T02:21:43.985Z,4.47
2018-12-23T02:24:11.470Z,0.90
2018-12-23T02:26:38.963Z,1.30
2018-12-23T02:29:06.463Z,0.77
2018-12-23T02:31:33.959Z,0.83
2018-12-23T02:34:01.540Z,0.97
2018-12-23T02:36:29.168Z,0.97
2018-12-23T02:38:57.728Z,1.23
2018-12-23T02:41:31.688Z,0.80
2018-12-23T02:43:54.902Z,0.90
2018-12-23T02:46:22.391Z,1.03
2018-12-23T02:48:49.878Z,0.97
2018-12-23T02:51:17.495Z,0.80
2018-12-23T02:53:45.080Z,1.37
2018-12-23T02:56:12.602Z,1.63
2018-12-23T02:58:40.105Z,0.90
2018-12-23T03:01:07.622Z,1.27
2018-12-23T03:03:35.106Z,1.70
2018-12-23T03:06:06.135Z,0.90
2018-12-23T03:08:38.926Z,1.63
2018-12-23T03:11:06.429Z,1.10
2018-12-23T03:13:33.914Z,1.17
2018-12-23T03:16:01.409Z,1.40
2018-12-23T03:18:28.948Z,1.50
2018-12-23T03:20:56.442Z,1.37
2018-12-23T03:23:23.971Z,1.40
2018-12-23T03:25:51.482Z,1.00
2018-12-23T03:28:18.970Z,1.00
2018-12-23T03:30:46.459Z,1.50
2018-12-23T03:33:13.962Z,1.40
2018-12-23T03:35:41.491Z,1.20
2018-12-23T03:38:08.980Z,1.13
2018-12-23T03:40:36.510Z,1.50
2018-12-23T03:43:03.988Z,0.97
2018-12-23T03:45:31.473Z,1.40
2018-12-23T03:47:58.979Z,1.40
2018-12-23T03:50:26.453Z,1.33
2018-12-23T03:52:53.957Z,1.00
2018-12-23T03:55:21.489Z,2.08
2018-12-23T03:57:49.073Z,1.17
2018-12-23T04:00:16.557Z,0.93
2018-12-23T04:02:44.226Z,1.20
2018-12-23T04:05:11.707Z,1.10
2018-12-23T04:07:39.193Z,1.00
2018-12-23T04:10:06.685Z,1.03
2018-12-23T04:12:34.161Z,1.13
2018-12-23T04:15:01.643Z,0.90
2018-12-23T04:17:29.185Z,0.90
2018-12-23T04:19:56.691Z,0.83
2018-12-23T04:22:24.179Z,1.40
2018-12-23T04:24:51.714Z,0.90
2018-12-23T04:27:19.206Z,0.97
2018-12-23T04:29:46.698Z,1.00
2018-12-23T04:32:14.208Z,1.00
2018-12-23T04:34:41.694Z,0.83
2018-12-23T04:37:09.207Z,1.00
2018-12-23T04:39:36.711Z,2.37
2018-12-23T04:42:04.201Z,1.27
2018-12-23T04:44:31.696Z,1.30
2018-12-23T04:46:59.220Z,1.17
2018-12-23T04:49:26.722Z,1.20
2018-12-23T04:51:54.213Z,0.98
2018-12-23T04:54:21.739Z,1.50
2018-12-23T04:56:49.234Z,1.10
2018-12-23T04:59:16.740Z,0.85
2018-12-23T05:01:44.249Z,1.15
2018-12-23T05:04:11.737Z,0.93
2018-12-23T05:06:43.522Z,1.10
2018-12-23T05:09:08.786Z,1.10
2018-12-23T05:11:36.278Z,1.00
2018-12-23T05:14:03.775Z,1.02
2018-12-23T05:16:31.294Z,1.40
2018-12-23T05:18:58.807Z,1.30
2018-12-23T05:21:26.295Z,2.22
2018-12-23T05:23:53.799Z,1.00
2018-12-23T05:26:21.294Z,1.25
2018-12-23T05:28:48.922Z,1.42
2018-12-23T05:31:16.431Z,1.62
2018-12-23T05:33:44.033Z,1.02
2018-12-23T05:36:11.526Z,1.30
2018-12-23T05:38:39.050Z,1.10
2018-12-23T05:41:06.539Z,2.05
2018-12-23T05:43:34.038Z,1.60
2018-12-23T05:46:01.547Z,1.00
2018-12-23T05:48:29.051Z,1.02
2018-12-23T05:50:56.540Z,1.47
2018-12-23T05:53:24.045Z,1.57
2018-12-23T05:55:51.125Z,1.00
2018-12-23T05:58:18.630Z,0.88
2018-12-23T06:00:46.139Z,1.70
2018-12-23T06:03:13.651Z,1.40
2018-12-23T06:05:41.137Z,1.42
2018-12-23T06:08:08.647Z,1.10
2018-12-23T06:10:36.134Z,0.95
2018-12-23T06:13:03.618Z,1.00
2018-12-23T06:15:31.137Z,1.37
2018-12-23T06:17:58.617Z,1.20
2018-12-23T06:20:26.122Z,1.60
2018-12-23T06:22:53.636Z,1.80
2018-12-23T06:25:21.138Z,1.52
2018-12-23T06:27:48.655Z,1.60
2018-12-23T06:30:16.166Z,1.50
2018-12-23T06:32:43.676Z,1.35
2018-12-23T06:35:11.175Z,1.80
2018-12-23T06:37:38.690Z,1.32
2018-12-23T06:40:06.266Z,1.55
2018-12-23T06:42:33.758Z,1.70
2018-12-23T06:45:01.265Z,1.75
2018-12-23T06:47:28.753Z,2.08
2018-12-23T06:49:56.245Z,1.53
2018-12-23T06:52:23.759Z,2.00
2018-12-23T06:54:51.270Z,2.15
2018-12-23T06:57:18.753Z,2.20
2018-12-23T06:59:46.267Z,2.30
2018-12-23T07:02:13.762Z,1.47
2018-12-23T07:04:41.251Z,1.80
2018-12-23T07:07:08.766Z,1.63
2018-12-23T07:09:36.254Z,1.80
2018-12-23T07:12:04.023Z,1.47
2018-12-23T07:14:31.538Z,1.92
2018-12-23T07:16:59.025Z,1.97
2018-12-23T07:19:26.505Z,3.43
2018-12-23T07:21:54.007Z,2.13
2018-12-23T07:24:21.481Z,1.67
2018-12-23T07:26:48.963Z,1.40
2018-12-23T07:29:16.459Z,1.43
2018-12-23T07:31:44.023Z,2.40
2018-12-23T07:34:11.505Z,1.70
2018-12-23T07:36:39.010Z,1.33
2018-12-23T07:39:06.502Z,1.97
2018-12-23T07:41:34.026Z,1.20
2018-12-23T07:44:01.546Z,1.30
2018-12-23T07:46:29.040Z,1.73
2018-12-23T07:48:56.532Z,2.30
2018-12-23T07:51:24.033Z,1.40
2018-12-23T07:53:51.505Z,2.13
2018-12-23T07:56:19.013Z,1.90
2018-12-23T07:58:46.522Z,1.20
2018-12-23T08:01:14.007Z,1.50
2018-12-23T08:03:41.492Z,1.53
2018-12-23T08:06:08.991Z,1.53
2018-12-23T08:08:36.477Z,1.27
2018-12-23T08:11:03.962Z,1.30
2018-12-23T08:13:31.491Z,1.20
2018-12-23T08:16:00.962Z,2.17
2018-12-23T08:18:28.458Z,1.70
2018-12-23T08:20:56.081Z,2.00
2018-12-23T08:23:23.570Z,1.67
2018-12-23T08:25:51.054Z,1.10
2018-12-23T08:28:18.559Z,1.60
2018-12-23T08:30:46.046Z,1.50
2018-12-23T08:33:13.569Z,2.43
2018-12-23T08:35:41.078Z,1.87
2018-12-23T08:38:08.569Z,1.57
2018-12-23T08:40:36.054Z,1.40
2018-12-23T08:43:03.570Z,1.57
2018-12-23T08:45:31.066Z,1.90
2018-12-23T08:47:58.545Z,1.37
2018-12-23T08:50:26.058Z,1.27
2018-12-23T08:52:53.539Z,1.20
2018-12-23T08:55:21.033Z,2.03
2018-12-23T08:57:48.574Z,1.77
2018-12-23T09:00:16.067Z,1.50
2018-12-23T09:02:43.580Z,2.53
2018-12-23T09:05:11.090Z,2.30
2018-12-23T09:07:38.578Z,1.80
2018-12-23T09:10:06.143Z,1.20
2018-12-23T09:12:33.645Z,1.60
2018-12-23T09:15:01.135Z,1.20
2018-12-23T09:17:28.614Z,1.17
2018-12-23T09:19:56.118Z,1.67
2018-12-23T09:22:23.607Z,1.60
2018-12-23T09:24:51.089Z,1.10
2018-12-23T09:27:18.586Z,2.00
2018-12-23T09:29:46.066Z,1.20
2018-12-23T09:32:13.552Z,1.50
2018-12-23T09:34:41.071Z,1.93
2018-12-23T09:37:08.561Z,1.60
2018-12-23T09:39:36.199Z,1.30
2018-12-23T09:42:03.789Z,1.57
2018-12-23T09:44:31.273Z,1.27
2018-12-23T09:46:58.785Z,1.40
2018-12-23T09:49:26.286Z,1.40
2018-12-23T09:51:53.761Z,1.10
2018-12-23T09:54:21.246Z,1.47
2018-12-23T09:56:48.770Z,1.80
2018-12-23T09:59:16.269Z,1.23
2018-12-23T10:01:43.749Z,1.00
2018-12-23T10:04:11.254Z,1.10
2018-12-23T10:06:38.746Z,1.70
2018-12-23T10:09:06.309Z,1.17
2018-12-23T10:11:33.809Z,0.70
2018-12-23T10:14:01.295Z,1.27
2018-12-23T10:16:28.833Z,1.40
2018-12-23T10:18:56.400Z,1.17
2018-12-23T10:21:23.895Z,1.50
2018-12-23T10:23:51.526Z,2.07
2018-12-23T10:26:19.033Z,1.10
2018-12-23T10:28:46.513Z,1.40
2018-12-23T10:31:14.017Z,1.03
2018-12-23T10:33:41.523Z,1.10
2018-12-23T10:36:09.010Z,1.03
2018-12-23T10:38:36.493Z,1.30
2018-12-23T10:41:04.058Z,1.20
2018-12-23T10:43:31.537Z,1.00
2018-12-23T10:45:59.022Z,1.60
2018-12-23T10:48:27.965Z,1.03
2018-12-23T10:50:55.634Z,0.97
2018-12-23T10:53:23.114Z,1.40
2018-12-23T10:55:50.610Z,1.13
2018-12-23T10:58:18.102Z,1.40
2018-12-23T11:00:45.592Z,1.23
2018-12-23T11:03:13.098Z,1.30
2018-12-23T11:05:40.600Z,1.50
2018-12-23T11:08:08.086Z,1.37
2018-12-23T11:10:35.602Z,1.17
2018-12-23T11:13:03.094Z,1.50
2018-12-23T11:15:30.688Z,1.10
2018-12-23T11:17:58.192Z,0.90
2018-12-23T11:20:25.706Z,1.00
2018-12-23T11:22:53.190Z,1.70
2018-12-23T11:25:20.722Z,1.40
2018-12-23T11:27:48.327Z,1.20
2018-12-23T11:30:15.830Z,2.20
2018-12-23T11:32:43.334Z,0.90
2018-12-23T11:35:10.873Z,1.10
2018-12-23T11:37:38.358Z,1.20
2018-12-23T11:40:07.727Z,1.50
2018-12-23T11:42:35.424Z,1.50
2018-12-23T11:45:03.118Z,2.17
2018-12-23T11:47:30.622Z,3.03
2018-12-23T11:49:58.110Z,2.00
2018-12-23T11:52:25.599Z,1.40
2018-12-23T11:54:53.133Z,1.73
2018-12-23T11:57:20.618Z,1.30
2018-12-23T11:59:48.115Z,1.33
2018-12-23T12:02:15.682Z,1.00
2018-12-23T12:04:43.255Z,1.20
2018-12-23T12:07:10.733Z,1.43
2018-12-23T12:09:38.237Z,1.20
2018-12-23T12:12:05.912Z,1.70
2018-12-23T12:14:33.402Z,1.60
2018-12-23T12:17:00.905Z,2.20
2018-12-23T12:19:28.414Z,1.20
2018-12-23T12:21:55.901Z,1.00
2018-12-23T12:24:23.406Z,2.03
2018-12-23T12:26:50.890Z,1.50
2018-12-23T12:29:18.367Z,1.20
2018-12-23T12:31:45.869Z,0.90
2018-12-23T12:34:13.369Z,0.97
2018-12-23T12:36:40.863Z,1.17
2018-12-23T12:39:08.368Z,1.10
2018-12-23T12:41:35.854Z,1.13
2018-12-23T12:44:03.341Z,1.07
2018-12-23T12:46:30.845Z,0.90
2018-12-23T12:48:58.330Z,1.20
2018-12-23T12:51:25.818Z,2.40
2018-12-23T12:53:53.318Z,2.10
2018-12-23T12:56:20.806Z,0.90
2018-12-23T12:58:48.311Z,0.80
2018-12-23T13:01:15.809Z,0.80
2018-12-23T13:03:43.295Z,0.80
2018-12-23T13:06:10.777Z,1.13
2018-12-23T13:08:38.278Z,1.20
2018-12-23T13:11:05.775Z,0.90
2018-12-23T13:13:33.255Z,1.13
2018-12-23T13:16:00.748Z,1.10
2018-12-23T13:18:28.245Z,0.90
2018-12-23T13:20:55.730Z,0.90
2018-12-23T13:23:23.230Z,1.00
2018-12-23T13:25:50.710Z,0.97
2018-12-23T13:28:18.188Z,0.70
2018-12-23T13:30:45.716Z,0.80
2018-12-23T13:33:13.198Z,1.20
2018-12-23T13:35:40.683Z,1.10
2018-12-23T13:38:08.181Z,1.13
2018-12-23T13:44:15.322Z,0.63
2018-12-23T13:46:56.158Z,0.90
2018-12-23T13:49:37.130Z,0.60
2018-12-23T13:52:18.045Z,0.90
2018-12-23T13:54:59.048Z,0.70
2018-12-23T13:57:39.808Z,0.80
2018-12-23T14:00:21.172Z,0.90
2018-12-23T14:03:02.351Z,0.60
2018-12-23T14:05:43.303Z,0.80
2018-12-23T14:08:24.419Z,0.97
2018-12-23T14:11:04.924Z,1.10
2018-12-23T14:13:46.115Z,0.90
2018-12-23T14:16:26.651Z,0.80
2018-12-23T14:19:07.424Z,0.90
2018-12-23T14:21:48.523Z,0.90
2018-12-23T14:24:31.238Z,0.97
2018-12-23T14:27:11.816Z,0.97
2018-12-23T14:29:52.640Z,0.70
2018-12-23T14:32:33.630Z,0.90
2018-12-23T14:35:14.608Z,0.83
2018-12-23T14:37:55.704Z,0.87
2018-12-23T14:40:36.491Z,2.07
2018-12-23T14:43:17.788Z,1.30
2018-12-23T14:45:58.867Z,2.00
2018-12-23T14:48:39.957Z,2.00
2018-12-23T14:51:21.332Z,1.77
2018-12-23T14:54:02.688Z,2.53
2018-12-23T14:56:43.924Z,1.70
2018-12-23T14:59:25.235Z,1.70
2018-12-23T15:02:05.756Z,1.87
2018-12-23T15:04:47.072Z,2.00
2018-12-23T15:07:28.163Z,1.82
2018-12-23T15:10:09.351Z,2.23
2018-12-23T15:12:49.818Z,2.85
2018-12-23T15:15:30.475Z,1.90
2018-12-23T15:18:11.711Z,2.20
2018-12-23T15:20:52.474Z,2.20
2018-12-23T15:23:33.417Z,3.83
2018-12-23T15:26:14.450Z,2.90
2018-12-23T15:28:55.391Z,2.13
2018-12-23T15:31:36.276Z,2.63
2018-12-23T15:34:16.813Z,2.60
2018-12-23T15:36:57.468Z,3.20
2018-12-23T15:39:42.519Z,2.58
2018-12-23T15:42:20.248Z,4.62
2018-12-23T15:45:01.351Z,4.95
2018-12-23T15:47:42.316Z,4.95
2018-12-23T15:50:22.995Z,4.80
2018-12-23T15:53:04.032Z,5.95
2018-12-23T15:55:45.101Z,7.97
2018-12-23T15:58:26.620Z,9.15
2018-12-23T16:01:07.995Z,9.08
2018-12-23T16:03:49.179Z,8.45
2018-12-23T16:06:30.471Z,7.70
2018-12-23T16:09:10.911Z,7.60
2018-12-23T16:11:52.069Z,9.95
2018-12-23T16:14:32.791Z,6.58
2018-12-23T16:17:13.467Z,6.35
2018-12-23T16:19:54.743Z,16.23
2018-12-23T16:22:36.051Z,8.63
2018-12-23T16:25:17.164Z,7.15
2018-12-23T16:27:58.083Z,6.37
2018-12-23T16:30:39.375Z,4.58
2018-12-23T16:33:19.886Z,3.70
2018-12-23T16:36:01.763Z,3.25
2018-12-23T16:38:42.467Z,4.17
2018-12-23T16:41:22.921Z,2.92
2018-12-23T16:44:03.903Z,3.60
2018-12-23T16:46:44.981Z,2.37
2018-12-23T16:49:26.160Z,2.42
2018-12-23T16:52:07.436Z,4.62
2018-12-23T16:54:48.456Z,3.40
2018-12-23T16:57:29.600Z,3.05
2018-12-23T17:00:10.496Z,4.00
2018-12-23T17:02:51.317Z,3.40
2018-12-23T17:05:31.951Z,2.33
2018-12-23T17:08:12.960Z,3.02
2018-12-23T17:10:54.006Z,5.87
2018-12-23T17:13:35.168Z,5.22
2018-12-23T17:16:16.623Z,5.17
2018-12-23T17:18:57.654Z,4.65
2018-12-23T17:21:38.955Z,4.83
2018-12-23T17:24:20.189Z,2.15
2018-12-23T17:27:01.158Z,1.87
2018-12-23T17:29:42.455Z,4.35
2018-12-23T17:32:23.547Z,7.58
2018-12-23T17:35:04.072Z,5.22
2018-12-23T17:37:45.352Z,6.58
2018-12-23T17:40:25.971Z,4.33
2018-12-23T17:43:07.199Z,3.93
2018-12-23T17:45:48.504Z,1.35
2018-12-23T17:48:29.385Z,1.10
2018-12-23T17:51:10.551Z,1.77
2018-12-23T17:53:51.871Z,1.10
2018-12-23T17:56:33.072Z,1.17
2018-12-23T17:59:14.330Z,1.00
2018-12-23T18:01:54.715Z,1.47
2018-12-23T18:04:35.864Z,0.80
2018-12-23T18:07:17.121Z,0.80
2018-12-23T18:09:58.235Z,1.00
2018-12-23T18:12:39.515Z,1.77
2018-12-23T18:15:20.151Z,1.03
2018-12-23T18:18:01.284Z,0.93
2018-12-23T18:20:42.461Z,1.03
2018-12-23T18:23:23.804Z,0.60
2018-12-23T18:26:04.561Z,0.70
2018-12-23T18:28:45.822Z,0.70
2018-12-23T18:31:26.664Z,0.50
2018-12-23T18:34:07.874Z,0.70
2018-12-23T18:36:48.564Z,0.50
2018-12-23T18:39:29.244Z,0.67
2018-12-23T18:42:10.369Z,0.60
2018-12-23T18:44:50.892Z,0.70
2018-12-23T18:47:31.768Z,0.63
2018-12-23T18:50:13.058Z,0.90
2018-12-23T18:52:54.273Z,1.20
2018-12-23T18:55:35.250Z,0.60
2018-12-23T19:01:28.111Z,1.17
2018-12-23T19:04:09.030Z,0.70
2018-12-23T19:06:50.021Z,0.90
2018-12-23T19:09:30.663Z,0.60
2018-12-23T19:12:11.282Z,1.23
2018-12-23T19:14:52.153Z,0.80
2018-12-23T19:17:33.096Z,1.20
2018-12-23T19:20:13.555Z,1.33
2018-12-23T19:23:22.176Z,0.70
2018-12-23T19:26:29.371Z,0.60
2018-12-23T19:29:36.583Z,0.90
2018-12-23T19:32:43.772Z,0.50
2018-12-23T19:35:51.001Z,0.60
2018-12-23T19:38:59.591Z,0.80
2018-12-23T19:42:06.804Z,0.43
2018-12-23T19:45:14.004Z,0.60
2018-12-23T19:48:22.611Z,0.50
2018-12-23T19:51:29.798Z,0.50
2018-12-23T19:54:38.366Z,0.80
2018-12-23T19:57:46.932Z,0.40
2018-12-23T20:00:55.564Z,0.57
2018-12-23T20:04:02.757Z,0.40
2018-12-23T20:06:43.896Z,0.40
2018-12-23T20:09:24.619Z,0.80
2018-12-23T20:12:05.335Z,0.40
2018-12-23T20:14:46.365Z,0.40
2018-12-23T20:17:27.163Z,0.40
2018-12-23T20:20:08.120Z,0.40
2018-12-23T20:22:49.040Z,0.40
2018-12-23T20:25:29.684Z,0.40
2018-12-23T20:28:10.650Z,0.40
2018-12-23T20:30:51.532Z,0.40
2018-12-23T20:33:32.275Z,0.50
2018-12-23T20:36:12.946Z,0.60
2018-12-23T20:38:53.566Z,0.40
2018-12-23T20:41:34.564Z,0.40
2018-12-23T20:44:15.018Z,0.50
2018-12-23T20:46:55.701Z,0.47
2018-12-23T20:49:36.484Z,0.30
2018-12-23T20:52:17.185Z,0.40
2018-12-23T20:54:57.919Z,0.40
2018-12-23T20:57:38.719Z,0.70
2018-12-23T21:00:19.517Z,0.67
2018-12-23T21:03:00.212Z,0.50
2018-12-23T21:05:40.900Z,0.40
2018-12-23T21:08:22.127Z,0.50
2018-12-23T21:11:03.071Z,0.40
2018-12-23T21:13:43.812Z,0.70
2018-12-23T21:16:24.671Z,0.40
2018-12-23T21:19:05.760Z,0.40
2018-12-23T21:21:46.628Z,0.40
2018-12-23T21:24:27.467Z,0.50
2018-12-23T21:27:08.487Z,0.40
2018-12-23T21:29:49.247Z,0.40
2018-12-23T21:32:30.092Z,0.40
2018-12-23T21:35:10.990Z,0.40
2018-12-23T21:37:51.984Z,0.40
2018-12-23T21:40:32.703Z,0.40
2018-12-23T21:43:13.347Z,0.40
2018-12-23T21:45:53.795Z,0.40
2018-12-23T21:48:34.165Z,0.40
2018-12-23T21:51:14.631Z,0.40
2018-12-23T21:53:55.603Z,0.60
2018-12-23T21:56:36.427Z,0.40
2018-12-23T21:59:17.422Z,0.40
2018-12-23T22:01:57.855Z,0.40
2018-12-23T22:04:38.675Z,0.40
2018-12-23T22:07:19.747Z,0.40
2018-12-23T22:10:00.547Z,0.40
2018-12-23T22:12:41.268Z,0.40
2018-12-23T22:15:21.799Z,0.40
2018-12-23T22:18:02.652Z,0.40
2018-12-23T22:20:43.040Z,0.40
2018-12-23T22:23:23.914Z,0.40
2018-12-23T22:26:04.931Z,0.40
2018-12-23T22:31:27.782Z,0.40
2018-12-23T22:34:08.175Z,0.40
2018-12-23T22:36:48.536Z,0.40
2018-12-23T22:39:29.287Z,0.40
2018-12-23T22:42:10.017Z,0.40
2018-12-23T22:44:50.848Z,0.50
2018-12-23T22:47:31.568Z,0.40
2018-12-23T22:50:12.561Z,0.40
2018-12-23T22:52:53.229Z,0.40
2018-12-23T22:55:34.023Z,0.40
2018-12-23T22:58:14.725Z,0.40
2018-12-23T23:00:55.519Z,0.40
2018-12-23T23:03:36.207Z,0.40
2018-12-23T23:06:17.156Z,0.40
2018-12-23T23:08:58.352Z,0.40
2018-12-23T23:11:39.441Z,0.40
2018-12-23T23:14:19.835Z,0.40
2018-12-23T23:17:00.631Z,0.40
2018-12-23T23:19:41.139Z,0.50
2018-12-23T23:22:21.644Z,0.40
2018-12-23T23:25:02.203Z,0.40
2018-12-23T23:27:42.872Z,0.40
2018-12-23T23:30:23.343Z,0.40
2018-12-23T23:33:04.092Z,0.40
2018-12-23T23:35:44.823Z,0.40
2018-12-23T23:38:25.963Z,0.40
2018-12-23T23:41:06.421Z,0.40
2018-12-23T23:43:47.303Z,0.40
2018-12-23T23:46:27.948Z,0.40
2018-12-23T23:49:08.627Z,0.40
2018-12-23T23:51:49.850Z,0.40
2018-12-23T23:54:30.796Z,0.40
2018-12-23T23:57:11.446Z,0.40
2018-12-23T23:59:52.259Z,0.40
